Time;durP1;ratioP1;P1;durP2;ratioP2;P2;SDS_P1;SDS_P2;PMS_P1;PMS_P2;Temp;Humidity;BMP_temperature;BMP_pressure;BME280_temperature;BME280_humidity;BME280_pressure;Samples;Min_cycle;Max_cycle;Signal;HPM_P1;HPM_P2
2021/08/15 00:00:59;;;;;;;4.88;1.63;;;;;;;;;;5093787;28;20455;-73
2021/08/15 00:03:25;;;;;;;7.18;2.03;;;;;;;;;;5093850;28;20024;-74
2021/08/15 00:05:51;;;;;;;7.80;1.50;;;;;;;;;;5093785;28;20060;-73
2021/08/15 00:08:17;;;;;;;4.82;1.52;;;;;;;;;;5093679;28;20016;-75
2021/08/15 00:10:43;;;;;;;9.52;1.60;;;;;;;;;;5093457;28;20402;-74
2021/08/15 00:13:09;;;;;;;4.07;1.33;;;;;;;;;;5093324;28;20036;-74
2021/08/15 00:15:35;;;;;;;5.82;1.55;;;;;;;;;;5093534;28;20039;-75
2021/08/15 00:18:01;;;;;;;4.50;1.30;;;;;;;;;;5093668;28;20021;-74
2021/08/15 00:20:27;;;;;;;2.65;1.65;;;;;;;;;;5093416;28;20028;-74
2021/08/15 00:22:54;;;;;;;3.20;1.45;;;;;;;;;;5093567;28;20394;-75
2021/08/15 00:25:20;;;;;;;3.17;1.38;;;;;;;;;;5075262;28;20494;-74
2021/08/15 00:27:46;;;;;;;4.20;1.45;;;;;;;;;;5075339;28;20032;-74
2021/08/15 00:30:14;;;;;;;2.00;1.67;;;;;;;;;;5075287;28;20024;-74
2021/08/15 00:32:41;;;;;;;13.50;1.60;;;;;;;;;;5093749;28;20017;-75
2021/08/15 00:35:08;;;;;;;3.08;1.30;;;;;;;;;;5075179;28;20024;-74
2021/08/15 00:37:34;;;;;;;5.75;1.30;;;;;;;;;;5093375;28;20028;-74
2021/08/15 00:40:00;;;;;;;9.15;1.60;;;;;;;;;;5074979;28;20118;-75
2021/08/15 00:42:26;;;;;;;2.83;1.30;;;;;;;;;;5093366;28;20062;-74
2021/08/15 00:44:52;;;;;;;1.65;1.30;;;;;;;;;;5093170;28;20070;-75
2021/08/15 00:47:18;;;;;;;2.95;1.58;;;;;;;;;;5093278;28;20017;-74
2021/08/15 00:49:44;;;;;;;4.05;1.40;;;;;;;;;;5075061;28;20080;-75
2021/08/15 00:52:10;;;;;;;8.23;1.60;;;;;;;;;;5075225;28;20031;-75
2021/08/15 00:54:36;;;;;;;3.35;1.48;;;;;;;;;;5094344;28;20040;-74
2021/08/15 00:57:02;;;;;;;2.95;1.35;;;;;;;;;;5097055;28;20039;-74
2021/08/15 00:59:28;;;;;;;2.15;1.25;;;;;;;;;;5097406;28;20016;-74
2021/08/15 01:01:55;;;;;;;2.47;1.20;;;;;;;;;;5078780;28;20475;-74
2021/08/15 01:04:25;;;;;;;2.50;1.42;;;;;;;;;;5079023;28;20020;-76
2021/08/15 01:06:51;;;;;;;3.33;1.52;;;;;;;;;;5097027;28;20025;-75
2021/08/15 01:09:17;;;;;;;3.47;1.48;;;;;;;;;;5078698;28;20031;-75
2021/08/15 01:11:44;;;;;;;2.78;1.40;;;;;;;;;;5078544;28;20114;-76
2021/08/15 01:14:10;;;;;;;2.78;1.50;;;;;;;;;;5078472;28;20048;-74
2021/08/15 01:16:37;;;;;;;2.47;1.10;;;;;;;;;;5096766;28;20042;-74
2021/08/15 01:19:03;;;;;;;2.17;1.35;;;;;;;;;;5096799;28;20099;-74
2021/08/15 01:21:29;;;;;;;1.73;1.27;;;;;;;;;;5078540;28;20114;-75
2021/08/15 01:23:55;;;;;;;1.95;1.17;;;;;;;;;;5078479;28;20112;-74
2021/08/15 01:26:22;;;;;;;1.85;1.20;;;;;;;;;;5096495;28;20103;-74
2021/08/15 01:28:51;;;;;;;2.15;1.55;;;;;;;;;;5096829;28;20159;-74
2021/08/15 01:31:18;;;;;;;3.97;1.42;;;;;;;;;;5078223;28;20502;-73
2021/08/15 01:33:44;;;;;;;4.80;1.15;;;;;;;;;;5096898;28;20043;-73
2021/08/15 01:36:15;;;;;;;5.72;1.45;;;;;;;;;;5096288;28;20475;-73
2021/08/15 01:38:42;;;;;;;3.78;1.10;;;;;;;;;;5077981;28;20051;-74
2021/08/15 01:41:08;;;;;;;3.03;1.30;;;;;;;;;;5078246;28;20027;-74
2021/08/15 01:43:46;;;;;;;2.22;1.00;;;;;;;;;;5096236;28;20515;-75
2021/08/15 01:46:12;;;;;;;8.50;1.30;;;;;;;;;;5078239;28;20028;-74
2021/08/15 01:48:38;;;;;;;6.53;1.40;;;;;;;;;;5096187;28;20080;-75
2021/08/15 01:51:04;;;;;;;4.88;1.30;;;;;;;;;;5095996;28;20036;-74
2021/08/15 01:53:30;;;;;;;5.88;1.10;;;;;;;;;;5096015;28;20475;-74
2021/08/15 01:55:56;;;;;;;5.65;1.20;;;;;;;;;;5096134;28;20383;-76
2021/08/15 01:58:22;;;;;;;2.47;1.23;;;;;;;;;;5095981;28;20102;-76
2021/08/15 02:00:48;;;;;;;2.55;1.30;;;;;;;;;;5096063;28;20045;-77
2021/08/15 02:03:14;;;;;;;2.85;1.23;;;;;;;;;;5095697;28;20356;-76
2021/08/15 02:05:42;;;;;;;7.22;1.40;;;;;;;;;;5077190;28;20024;-75
2021/08/15 02:08:08;;;;;;;4.63;1.10;;;;;;;;;;5095753;28;20478;-75
2021/08/15 02:10:34;;;;;;;3.72;1.20;;;;;;;;;;5095871;28;20109;-75
2021/08/15 02:13:02;;;;;;;5.57;1.20;;;;;;;;;;5077239;28;20027;-74
2021/08/15 02:15:28;;;;;;;2.05;1.20;;;;;;;;;;5095779;28;20028;-74
2021/08/15 02:17:54;;;;;;;3.50;1.15;;;;;;;;;;5077515;28;20028;-74
2021/08/15 02:20:20;;;;;;;3.60;1.20;;;;;;;;;;5095507;28;20024;-76
2021/08/15 02:22:46;;;;;;;6.38;1.10;;;;;;;;;;5095640;28;20024;-75
2021/08/15 02:25:13;;;;;;;2.65;1.38;;;;;;;;;;5095555;28;20074;-75
2021/08/15 02:27:40;;;;;;;2.10;1.10;;;;;;;;;;5095593;28;20024;-75
2021/08/15 02:30:07;;;;;;;2.45;1.25;;;;;;;;;;5095414;28;20055;-75
2021/08/15 02:32:33;;;;;;;4.30;1.13;;;;;;;;;;5095446;28;20021;-75
2021/08/15 02:34:59;;;;;;;5.82;1.00;;;;;;;;;;5095026;28;20024;-75
2021/08/15 02:37:25;;;;;;;5.90;1.10;;;;;;;;;;5095339;28;20030;-74
2021/08/15 02:39:52;;;;;;;2.95;1.30;;;;;;;;;;5095160;28;20020;-74
2021/08/15 02:42:19;;;;;;;8.38;1.27;;;;;;;;;;5095271;28;20027;-75
2021/08/15 02:44:45;;;;;;;4.95;1.33;;;;;;;;;;5094848;28;20020;-76
2021/08/15 02:47:11;;;;;;;18.27;1.58;;;;;;;;;;5095243;28;20031;-73
2021/08/15 02:49:40;;;;;;;11.93;1.10;;;;;;;;;;5095068;28;20036;-76
2021/08/15 02:52:07;;;;;;;3.70;1.38;;;;;;;;;;5076792;28;20479;-74
2021/08/15 02:54:33;;;;;;;2.30;1.10;;;;;;;;;;5095058;28;20055;-73
2021/08/15 02:56:59;;;;;;;5.32;1.42;;;;;;;;;;5095182;28;20455;-75
2021/08/15 02:59:25;;;;;;;7.18;1.40;;;;;;;;;;5076667;28;20024;-75
2021/08/15 03:01:51;;;;;;;7.53;1.25;;;;;;;;;;5094791;28;20089;-76
2021/08/15 03:04:17;;;;;;;5.85;1.30;;;;;;;;;;5094767;28;20398;-76
2021/08/15 03:06:43;;;;;;;6.22;1.50;;;;;;;;;;5076499;28;20059;-74
2021/08/15 03:09:09;;;;;;;3.28;1.20;;;;;;;;;;5094532;28;20081;-75
2021/08/15 03:11:35;;;;;;;4.80;1.67;;;;;;;;;;5072837;28;20033;-75
2021/08/15 03:14:01;;;;;;;7.45;1.30;;;;;;;;;;5042778;28;20048;-75
2021/08/15 03:16:27;;;;;;;6.50;1.30;;;;;;;;;;5094264;28;20032;-74
2021/08/15 03:18:53;;;;;;;3.78;1.50;;;;;;;;;;5094929;28;20024;-75
2021/08/15 03:21:19;;;;;;;4.43;1.33;;;;;;;;;;5094731;28;20020;-75
2021/08/15 03:23:45;;;;;;;2.13;1.20;;;;;;;;;;5076223;28;20020;-74
2021/08/15 03:26:11;;;;;;;6.65;1.30;;;;;;;;;;5094367;28;20028;-74
2021/08/15 03:28:37;;;;;;;4.38;1.30;;;;;;;;;;5094341;28;20383;-75
2021/08/15 03:31:03;;;;;;;1.90;1.10;;;;;;;;;;5094601;28;20028;-75
2021/08/15 03:33:29;;;;;;;3.45;1.23;;;;;;;;;;5076125;28;20024;-74
2021/08/15 03:35:55;;;;;;;5.57;1.20;;;;;;;;;;5094170;28;20119;-73
2021/08/15 03:38:21;;;;;;;1.55;1.10;;;;;;;;;;5094288;28;20020;-74
2021/08/15 03:40:47;;;;;;;2.35;1.10;;;;;;;;;;5094108;28;20387;-74
2021/08/15 03:43:13;;;;;;;2.80;1.10;;;;;;;;;;5093995;28;20066;-75
2021/08/15 03:45:39;;;;;;;3.22;1.08;;;;;;;;;;5075907;28;20093;-74
2021/08/15 03:48:08;;;;;;;6.68;1.58;;;;;;;;;;5093879;28;20032;-76
2021/08/15 03:50:34;;;;;;;5.03;1.13;;;;;;;;;;5094173;28;20391;-75
2021/08/15 03:53:00;;;;;;;5.00;1.33;;;;;;;;;;5093922;28;20088;-74
2021/08/15 03:55:26;;;;;;;8.80;1.20;;;;;;;;;;5099716;28;20359;-74
2021/08/15 03:57:52;;;;;;;1.25;1.15;;;;;;;;;;5114208;28;20051;-76
2021/08/15 04:00:18;;;;;;;15.13;2.15;;;;;;;;;;5114205;28;20402;-76
2021/08/15 04:02:44;;;;;;;5.90;1.20;;;;;;;;;;5114012;28;20383;-73
2021/08/15 04:05:10;;;;;;;5.78;1.50;;;;;;;;;;5096989;28;20486;-75
2021/08/15 04:07:36;;;;;;;4.78;1.48;;;;;;;;;;5093956;28;20096;-76
2021/08/15 04:10:03;;;;;;;6.25;1.25;;;;;;;;;;5075547;28;20401;-75
2021/08/15 04:12:30;;;;;;;5.00;1.38;;;;;;;;;;5093542;28;20521;-76
2021/08/15 04:14:56;;;;;;;9.15;1.20;;;;;;;;;;5093433;28;20052;-76
2021/08/15 04:17:22;;;;;;;5.00;1.40;;;;;;;;;;5093404;28;20035;-74
2021/08/15 04:19:48;;;;;;;4.13;1.27;;;;;;;;;;5093420;28;20417;-76
2021/08/15 04:22:14;;;;;;;8.02;1.48;;;;;;;;;;5093674;28;20027;-76
2021/08/15 04:24:40;;;;;;;2.95;1.30;;;;;;;;;;5093693;28;20027;-75
2021/08/15 04:27:06;;;;;;;12.70;1.20;;;;;;;;;;5093717;28;20020;-75
2021/08/15 04:29:35;;;;;;;4.78;1.33;;;;;;;;;;5092796;28;20028;-75
2021/08/15 04:32:01;;;;;;;3.75;1.38;;;;;;;;;;5093805;28;20145;-75
2021/08/15 04:34:27;;;;;;;4.70;1.20;;;;;;;;;;5075115;28;20383;-74
2021/08/15 04:36:53;;;;;;;4.32;1.35;;;;;;;;;;5093245;28;20524;-75
2021/08/15 04:39:19;;;;;;;3.53;1.40;;;;;;;;;;5093394;28;20111;-77
2021/08/15 04:41:46;;;;;;;3.00;1.20;;;;;;;;;;5093232;28;20108;-75
2021/08/15 04:44:12;;;;;;;1.95;1.10;;;;;;;;;;5093102;28;20035;-75
2021/08/15 04:46:38;;;;;;;5.90;1.45;;;;;;;;;;5075043;28;20028;-76
2021/08/15 04:49:04;;;;;;;6.55;1.10;;;;;;;;;;5093145;28;20032;-74
2021/08/15 04:51:30;;;;;;;1.95;1.30;;;;;;;;;;5093164;28;20027;-75
2021/08/15 04:53:56;;;;;;;19.17;1.60;;;;;;;;;;5093228;28;20020;-75
2021/08/15 04:56:22;;;;;;;4.10;1.27;;;;;;;;;;5093061;28;20081;-74
2021/08/15 04:58:48;;;;;;;11.55;1.40;;;;;;;;;;5093401;28;20026;-75
2021/08/15 05:01:14;;;;;;;10.68;1.50;;;;;;;;;;5074823;28;20486;-76
2021/08/15 05:03:40;;;;;;;12.20;1.60;;;;;;;;;;5093222;28;20020;-74
2021/08/15 05:06:06;;;;;;;18.63;1.95;;;;;;;;;;5075009;28;20356;-74
2021/08/15 05:08:32;;;;;;;17.17;2.05;;;;;;;;;;5075489;28;20016;-72
2021/08/15 05:10:58;;;;;;;9.13;2.08;;;;;;;;;;5093308;28;20024;-73
2021/08/15 05:13:27;;;;;;;12.07;2.08;;;;;;;;;;5092681;28;20494;-73
2021/08/15 05:15:53;;;;;;;6.88;2.38;;;;;;;;;;5092686;28;20044;-71
2021/08/15 05:18:19;;;;;;;6.03;2.20;;;;;;;;;;5092786;28;20573;-70
2021/08/15 05:20:45;;;;;;;9.77;2.47;;;;;;;;;;5092745;28;20102;-71
2021/08/15 05:23:12;;;;;;;3.47;2.20;;;;;;;;;;5092792;28;20028;-70
2021/08/15 05:25:38;;;;;;;7.72;2.38;;;;;;;;;;5080373;28;20534;-71
2021/08/15 05:28:05;;;;;;;7.05;2.10;;;;;;;;;;5112976;28;20112;-70
2021/08/15 05:30:31;;;;;;;17.00;2.58;;;;;;;;;;5113010;28;20096;-71
2021/08/15 05:32:57;;;;;;;6.03;2.60;;;;;;;;;;5094597;28;20031;-70
2021/08/15 05:35:23;;;;;;;10.38;2.80;;;;;;;;;;5112976;28;20024;-71
2021/08/15 05:37:50;;;;;;;7.18;2.90;;;;;;;;;;5113044;28;20051;-70
2021/08/15 05:40:16;;;;;;;8.73;2.80;;;;;;;;;;5112971;28;20023;-70
2021/08/15 05:42:42;;;;;;;6.78;2.60;;;;;;;;;;5115604;28;20055;-71
2021/08/15 05:45:09;;;;;;;11.82;2.75;;;;;;;;;;5098428;28;20027;-71
2021/08/15 05:47:34;;;;;;;7.75;2.95;;;;;;;;;;5116166;28;20450;-70
2021/08/15 05:50:01;;;;;;;6.15;2.65;;;;;;;;;;5116791;28;20076;-71
2021/08/15 05:52:27;;;;;;;8.30;2.88;;;;;;;;;;5116583;28;20028;-68
2021/08/15 05:54:53;;;;;;;6.30;2.83;;;;;;;;;;5116098;28;20081;-70
2021/08/15 05:57:19;;;;;;;9.57;3.03;;;;;;;;;;5098130;28;20040;-70
2021/08/15 05:59:45;;;;;;;12.55;3.05;;;;;;;;;;5116286;28;20035;-71
2021/08/15 06:02:11;;;;;;;6.55;2.90;;;;;;;;;;5115891;28;20135;-69
2021/08/15 06:04:37;;;;;;;13.65;3.08;;;;;;;;;;5103569;28;20026;-68
2021/08/15 06:07:03;;;;;;;11.77;3.03;;;;;;;;;;5095687;28;20364;-70
2021/08/15 06:09:29;;;;;;;7.40;2.95;;;;;;;;;;5095515;28;20020;-71
2021/08/15 06:11:55;;;;;;;9.43;3.17;;;;;;;;;;5095521;28;20024;-70
2021/08/15 06:14:21;;;;;;;10.35;3.42;;;;;;;;;;5095089;28;20044;-68
2021/08/15 06:16:47;;;;;;;6.80;3.05;;;;;;;;;;5094878;28;20122;-68
2021/08/15 06:19:14;;;;;;;8.70;3.03;;;;;;;;;;5095479;28;20094;-68
2021/08/15 06:21:40;;;;;;;13.60;3.40;;;;;;;;;;5095177;28;20036;-68
2021/08/15 06:24:06;;;;;;;17.15;3.78;;;;;;;;;;5094944;28;20023;-68
2021/08/15 06:26:33;;;;;;;12.05;4.68;;;;;;;;;;5077274;28;20031;-72
2021/08/15 06:28:59;;;;;;;7.15;3.30;;;;;;;;;;5095421;28;20024;-71
2021/08/15 06:31:25;;;;;;;13.32;3.15;;;;;;;;;;5095020;28;20042;-71
2021/08/15 06:33:51;;;;;;;16.33;3.70;;;;;;;;;;5077193;28;20016;-72
2021/08/15 06:36:17;;;;;;;8.52;3.47;;;;;;;;;;5095263;28;20071;-71
2021/08/15 06:38:43;;;;;;;13.15;4.03;;;;;;;;;;5077252;28;20051;-71
2021/08/15 06:41:10;;;;;;;15.52;4.15;;;;;;;;;;5076587;28;20063;-71
2021/08/15 06:43:36;;;;;;;13.93;4.30;;;;;;;;;;5094825;28;20024;-70
2021/08/15 06:46:02;;;;;;;12.00;3.90;;;;;;;;;;5108786;28;20023;-71
2021/08/15 06:48:28;;;;;;;15.70;3.58;;;;;;;;;;5111628;28;20122;-71
2021/08/15 06:50:57;;;;;;;9.25;3.75;;;;;;;;;;5102828;28;20369;-71
2021/08/15 06:53:24;;;;;;;10.00;3.72;;;;;;;;;;5111789;28;20027;-71
2021/08/15 06:55:50;;;;;;;11.90;3.63;;;;;;;;;;5077948;28;20124;-82
2021/08/15 06:58:16;;;;;;;9.20;3.40;;;;;;;;;;5092239;28;20020;-82
2021/08/15 07:00:42;;;;;;;15.80;3.88;;;;;;;;;;5099821;28;20024;-79
2021/08/15 07:03:08;;;;;;;18.88;3.90;;;;;;;;;;5118273;28;20098;-83
2021/08/15 07:05:34;;;;;;;13.57;4.03;;;;;;;;;;5059107;28;20505;-83
2021/08/15 07:08:00;;;;;;;15.55;4.60;;;;;;;;;;5059291;28;20028;-83
2021/08/15 07:10:27;;;;;;;19.95;5.93;;;;;;;;;;5077024;28;20070;-80
2021/08/15 07:12:55;;;;;;;29.00;7.53;;;;;;;;;;5077013;28;20044;-82
2021/08/15 07:15:21;;;;;;;18.77;6.80;;;;;;;;;;5059389;28;20029;-83
2021/08/15 07:17:47;;;;;;;21.55;6.40;;;;;;;;;;5076960;28;20464;-83
2021/08/15 07:20:14;;;;;;;25.13;7.25;;;;;;;;;;5058761;28;20039;-80
2021/08/15 07:22:40;;;;;;;20.52;6.88;;;;;;;;;;5076828;28;20028;-80
2021/08/15 07:25:06;;;;;;;20.27;6.63;;;;;;;;;;5058876;28;20042;-79
2021/08/15 07:27:32;;;;;;;24.05;6.82;;;;;;;;;;5076630;28;20024;-81
2021/08/15 07:29:59;;;;;;;23.23;6.53;;;;;;;;;;5075939;28;20024;-83
2021/08/15 07:32:25;;;;;;;19.83;6.32;;;;;;;;;;5076068;28;20035;-81
2021/08/15 07:34:51;;;;;;;21.77;5.82;;;;;;;;;;5075798;28;20029;-82
2021/08/15 07:37:17;;;;;;;20.35;6.30;;;;;;;;;;5076091;28;20102;-83
2021/08/15 07:39:43;;;;;;;14.48;5.95;;;;;;;;;;5075924;28;20017;-81
2021/08/15 07:42:09;;;;;;;17.40;5.72;;;;;;;;;;5065496;28;20020;-82
2021/08/15 07:44:35;;;;;;;14.05;5.70;;;;;;;;;;5113456;28;20020;-81
2021/08/15 07:47:01;;;;;;;12.55;5.53;;;;;;;;;;5116393;28;20486;-83
2021/08/15 07:49:27;;;;;;;12.00;5.03;;;;;;;;;;5087091;28;20048;-80
2021/08/15 07:51:53;;;;;;;17.05;5.72;;;;;;;;;;5081878;28;20015;-82
2021/08/15 07:54:19;;;;;;;13.40;4.53;;;;;;;;;;5102499;28;20032;-80
2021/08/15 07:56:45;;;;;;;15.65;5.03;;;;;;;;;;5101800;28;20043;-82
2021/08/15 07:59:11;;;;;;;13.32;4.45;;;;;;;;;;5099670;28;20024;-76
2021/08/15 08:01:38;;;;;;;19.27;4.90;;;;;;;;;;5107495;28;20027;-83
2021/08/15 08:04:04;;;;;;;20.45;4.70;;;;;;;;;;5115447;28;20027;-78
2021/08/15 08:06:30;;;;;;;14.13;4.78;;;;;;;;;;5116352;28;20118;-83
2021/08/15 08:08:56;;;;;;;26.67;5.00;;;;;;;;;;5115458;28;20055;-77
2021/08/15 08:11:21;;;;;;;18.25;5.32;;;;;;;;;;5116058;28;20027;-77
2021/08/15 08:13:50;;;;;;;16.60;4.55;;;;;;;;;;5115971;28;20486;-82
2021/08/15 08:16:16;;;;;;;21.52;5.00;;;;;;;;;;5097186;28;20129;-80
2021/08/15 08:18:44;;;;;;;16.52;4.90;;;;;;;;;;5115154;28;20031;-79
2021/08/15 08:21:10;;;;;;;16.63;4.95;;;;;;;;;;5097451;28;20027;-77
2021/08/15 08:23:36;;;;;;;13.90;4.68;;;;;;;;;;5096551;28;20107;-77
2021/08/15 08:26:02;;;;;;;15.88;4.75;;;;;;;;;;5077005;28;20020;-76
2021/08/15 08:28:28;;;;;;;19.17;4.97;;;;;;;;;;5093255;28;20027;-77
2021/08/15 08:30:54;;;;;;;13.98;4.57;;;;;;;;;;5093171;28;20019;-75
2021/08/15 08:33:20;;;;;;;11.00;4.45;;;;;;;;;;5074995;28;20024;-76
2021/08/15 08:35:46;;;;;;;15.45;5.05;;;;;;;;;;5092971;28;20032;-77
2021/08/15 08:38:12;;;;;;;10.65;4.43;;;;;;;;;;5093088;28;20028;-76
2021/08/15 08:40:39;;;;;;;14.07;4.45;;;;;;;;;;5093190;28;20095;-77
2021/08/15 08:43:05;;;;;;;21.25;4.72;;;;;;;;;;5093100;28;20024;-76
2021/08/15 08:45:32;;;;;;;16.13;4.47;;;;;;;;;;5093246;28;20029;-79
2021/08/15 08:47:58;;;;;;;18.88;4.72;;;;;;;;;;5093448;28;20032;-78
2021/08/15 08:50:24;;;;;;;14.70;4.68;;;;;;;;;;5075216;28;20031;-78
2021/08/15 08:52:50;;;;;;;14.43;4.43;;;;;;;;;;5093150;28;20107;-77
2021/08/15 08:55:17;;;;;;;9.50;4.20;;;;;;;;;;5093070;28;20055;-78
2021/08/15 08:57:43;;;;;;;19.60;4.50;;;;;;;;;;5073010;28;20123;-77
2021/08/15 09:00:09;;;;;;;15.18;4.60;;;;;;;;;;5072644;28;20024;-80
2021/08/15 09:02:36;;;;;;;13.23;4.53;;;;;;;;;;5072747;28;20060;-80
2021/08/15 09:05:02;;;;;;;15.55;4.60;;;;;;;;;;5073166;28;20016;-79
2021/08/15 09:07:32;;;;;;;15.85;5.13;;;;;;;;;;5072715;28;20021;-79
2021/08/15 09:09:59;;;;;;;14.77;4.78;;;;;;;;;;5072680;28;20097;-75
2021/08/15 09:12:39;;;;;;;19.75;5.05;;;;;;;;;;5072934;28;20483;-81
2021/08/15 09:15:25;;;;;;;13.60;4.28;;;;;;;;;;5073004;28;20091;-77
2021/08/15 09:17:51;;;;;;;13.40;4.32;;;;;;;;;;5076492;28;20040;-80
2021/08/15 09:20:24;;;;;;;16.58;4.68;;;;;;;;;;5076465;28;20016;-80
2021/08/15 09:22:50;;;;;;;13.43;4.38;;;;;;;;;;5076395;28;20028;-80
2021/08/15 09:25:19;;;;;;;13.02;4.35;;;;;;;;;;5076500;28;20025;-79
2021/08/15 09:27:53;;;;;;;11.25;4.60;;;;;;;;;;5076508;28;20381;-80
2021/08/15 09:30:24;;;;;;;11.13;4.38;;;;;;;;;;5058256;28;20024;-81
2021/08/15 09:32:53;;;;;;;9.57;3.63;;;;;;;;;;5075979;28;20029;-79
2021/08/15 09:35:20;;;;;;;12.77;3.75;;;;;;;;;;5057974;28;20016;-75
2021/08/15 09:37:46;;;;;;;10.20;4.07;;;;;;;;;;5076130;28;20036;-76
2021/08/15 09:40:20;;;;;;;13.25;4.43;;;;;;;;;;5076126;28;20033;-76
2021/08/15 09:42:46;;;;;;;15.48;4.78;;;;;;;;;;5076004;28;20461;-77
2021/08/15 09:45:13;;;;;;;16.58;4.45;;;;;;;;;;5075905;28;20384;-77
2021/08/15 09:47:39;;;;;;;10.02;3.78;;;;;;;;;;5076002;28;20027;-81
2021/08/15 09:50:21;;;;;;;18.90;4.72;;;;;;;;;;5076179;28;20056;-80
2021/08/15 09:52:47;;;;;;;10.52;3.75;;;;;;;;;;5075916;28;20033;-80
2021/08/15 09:55:13;;;;;;;12.77;3.97;;;;;;;;;;5075593;28;20032;-81
2021/08/15 09:57:40;;;;;;;10.18;3.35;;;;;;;;;;5075756;28;20032;-80
2021/08/15 10:00:26;;;;;;;13.70;3.60;;;;;;;;;;5076062;28;20421;-80
2021/08/15 10:02:52;;;;;;;6.97;2.95;;;;;;;;;;5075984;28;20139;-80
2021/08/15 10:05:18;;;;;;;12.68;2.97;;;;;;;;;;5057486;28;20139;-80
2021/08/15 10:07:44;;;;;;;9.95;3.00;;;;;;;;;;5075696;28;20017;-79
2021/08/15 10:10:12;;;;;;;8.10;2.53;;;;;;;;;;5075769;28;20023;-80
2021/08/15 10:12:38;;;;;;;10.73;3.22;;;;;;;;;;5075361;28;20382;-80
2021/08/15 10:15:11;;;;;;;5.70;2.47;;;;;;;;;;5075397;28;20115;-80
2021/08/15 10:17:38;;;;;;;8.98;2.65;;;;;;;;;;5075416;28;20395;-79
2021/08/15 10:20:06;;;;;;;5.60;2.55;;;;;;;;;;5057488;28;20460;-81
2021/08/15 10:22:33;;;;;;;6.32;2.72;;;;;;;;;;5075525;28;20540;-80
2021/08/15 10:25:01;;;;;;;8.63;2.78;;;;;;;;;;5075410;28;20329;-80
2021/08/15 10:27:39;;;;;;;6.47;2.20;;;;;;;;;;5074519;28;20566;-80
2021/08/15 10:30:15;;;;;;;6.15;2.05;;;;;;;;;;5057263;28;20035;-79
2021/08/15 10:32:56;;;;;;;5.93;2.25;;;;;;;;;;5075338;28;20031;-78
2021/08/15 10:35:29;;;;;;;6.72;2.40;;;;;;;;;;5056949;28;20016;-75
2021/08/15 10:37:56;;;;;;;5.38;2.22;;;;;;;;;;5056949;28;20407;-80
2021/08/15 10:40:41;;;;;;;6.90;2.00;;;;;;;;;;5074927;28;20023;-78
2021/08/15 10:43:08;;;;;;;4.80;1.80;;;;;;;;;;5074724;28;20051;-81
2021/08/15 10:45:34;;;;;;;7.50;1.95;;;;;;;;;;5056840;28;20020;-80
2021/08/15 10:48:08;;;;;;;4.93;2.10;;;;;;;;;;5074701;28;20024;-78
2021/08/15 10:50:47;;;;;;;5.68;2.15;;;;;;;;;;5074965;28;20063;-80
2021/08/15 10:55:55;;;;;;;6.45;2.60;;;;;;;;;;5075081;28;20470;-78
2021/08/15 10:58:37;;;;;;;6.38;2.13;;;;;;;;;;5074710;28;20103;-79
2021/08/15 11:01:04;;;;;;;4.00;2.17;;;;;;;;;;5074626;28;20046;-74
2021/08/15 11:03:30;;;;;;;6.13;1.98;;;;;;;;;;5074688;28;20024;-81
2021/08/15 11:05:58;;;;;;;9.00;2.45;;;;;;;;;;5074383;28;20016;-81
2021/08/15 11:08:33;;;;;;;5.72;2.42;;;;;;;;;;5074318;28;20112;-80
2021/08/15 11:11:08;;;;;;;9.65;2.53;;;;;;;;;;5074609;28;20475;-75
2021/08/15 11:13:34;;;;;;;4.88;2.25;;;;;;;;;;5073894;28;20049;-79
2021/08/15 11:16:19;;;;;;;6.32;2.50;;;;;;;;;;5074424;28;20031;-78
2021/08/15 11:19:23;;;;;;;4.38;2.10;;;;;;;;;;5074043;28;20063;-74
2021/08/15 11:22:01;;;;;;;4.90;2.25;;;;;;;;;;4992745;28;20062;-74
2021/08/15 11:24:28;;;;;;;6.72;2.33;;;;;;;;;;4992653;28;20066;-80
2021/08/15 11:26:55;;;;;;;5.70;2.08;;;;;;;;;;5038183;28;20032;-79
2021/08/15 11:29:21;;;;;;;4.85;2.50;;;;;;;;;;5055997;28;20031;-79
2021/08/15 11:31:47;;;;;;;5.72;2.70;;;;;;;;;;5074031;28;20028;-77
2021/08/15 11:34:13;;;;;;;8.50;2.63;;;;;;;;;;5074071;28;20081;-79
2021/08/15 11:36:40;;;;;;;5.10;2.05;;;;;;;;;;5056085;28;20076;-80
2021/08/15 11:39:08;;;;;;;7.32;2.95;;;;;;;;;;5072934;28;20029;-79
2021/08/15 11:41:34;;;;;;;3.92;2.22;;;;;;;;;;5055854;28;20386;-81
2021/08/15 11:44:00;;;;;;;6.53;2.25;;;;;;;;;;5073501;28;20032;-81
2021/08/15 11:46:26;;;;;;;9.60;2.80;;;;;;;;;;5073609;28;20187;-80
2021/08/15 11:48:52;;;;;;;8.07;2.90;;;;;;;;;;5074064;28;20521;-78
2021/08/15 11:51:18;;;;;;;4.22;2.33;;;;;;;;;;5073686;28;20036;-80
2021/08/15 11:53:47;;;;;;;6.85;2.33;;;;;;;;;;5073880;28;20029;-77
2021/08/15 11:56:15;;;;;;;3.42;2.42;;;;;;;;;;5055551;28;20036;-81
2021/08/15 11:58:48;;;;;;;5.38;2.20;;;;;;;;;;5073652;28;20024;-82
2021/08/15 12:01:16;;;;;;;9.55;2.38;;;;;;;;;;5055394;28;20078;-78
2021/08/15 12:03:42;;;;;;;4.38;2.28;;;;;;;;;;5055813;28;20056;-79
2021/08/15 12:06:09;;;;;;;7.72;2.78;;;;;;;;;;5073494;28;20082;-81
2021/08/15 12:08:42;;;;;;;6.97;2.08;;;;;;;;;;5055555;28;20020;-80
2021/08/15 12:11:27;;;;;;;3.70;2.20;;;;;;;;;;5073776;28;20348;-80
2021/08/15 12:13:54;;;;;;;4.07;2.00;;;;;;;;;;5073246;28;20064;-80
2021/08/15 12:16:24;;;;;;;5.97;2.40;;;;;;;;;;5073244;28;20399;-80
2021/08/15 12:18:50;;;;;;;7.90;2.30;;;;;;;;;;5073284;28;20383;-75
2021/08/15 12:21:16;;;;;;;5.68;2.22;;;;;;;;;;5073208;28;20457;-79
2021/08/15 12:23:59;;;;;;;11.65;2.60;;;;;;;;;;5073575;28;20025;-80
2021/08/15 12:26:26;;;;;;;5.78;2.22;;;;;;;;;;5073028;28;20464;-80
2021/08/15 12:28:55;;;;;;;7.40;2.40;;;;;;;;;;5073498;28;20051;-81
2021/08/15 12:31:26;;;;;;;5.75;2.60;;;;;;;;;;5073230;28;20020;-81
2021/08/15 12:34:08;;;;;;;7.13;2.50;;;;;;;;;;5072991;28;20387;-81
2021/08/15 12:36:42;;;;;;;5.40;2.50;;;;;;;;;;5073041;28;20078;-82
2021/08/15 12:39:08;;;;;;;4.75;2.17;;;;;;;;;;5073132;28;20265;-79
2021/08/15 12:41:50;;;;;;;7.93;2.17;;;;;;;;;;5054623;28;20025;-80
2021/08/15 12:44:17;;;;;;;7.07;2.37;;;;;;;;;;5073282;28;20077;-81
2021/08/15 12:46:43;;;;;;;7.60;2.40;;;;;;;;;;5072779;28;20025;-75
2021/08/15 12:49:19;;;;;;;6.85;2.10;;;;;;;;;;5073018;28;20033;-73
2021/08/15 12:51:46;;;;;;;6.47;2.40;;;;;;;;;;5076149;28;20077;-80
2021/08/15 12:54:12;;;;;;;8.98;2.20;;;;;;;;;;5077069;28;20032;-80
2021/08/15 12:56:38;;;;;;;3.92;1.80;;;;;;;;;;5076916;28;20036;-77
2021/08/15 12:59:04;;;;;;;8.65;1.75;;;;;;;;;;5077025;28;20099;-80
2021/08/15 13:01:30;;;;;;;5.07;2.05;;;;;;;;;;5077296;28;20028;-77
2021/08/15 13:03:59;;;;;;;5.38;1.98;;;;;;;;;;5076809;28;20379;-81
2021/08/15 13:06:26;;;;;;;3.70;1.50;;;;;;;;;;5077094;28;20464;-80
2021/08/15 13:08:52;;;;;;;5.90;2.10;;;;;;;;;;5076834;28;20031;-75
2021/08/15 13:11:18;;;;;;;14.50;2.33;;;;;;;;;;5061320;28;20057;-82
2021/08/15 13:13:44;;;;;;;8.45;2.08;;;;;;;;;;5096955;28;20044;-76
2021/08/15 13:16:10;;;;;;;8.55;2.38;;;;;;;;;;5096738;28;20471;-72
2021/08/15 13:18:36;;;;;;;8.05;2.17;;;;;;;;;;5078487;28;20024;-74
2021/08/15 13:21:02;;;;;;;14.20;2.70;;;;;;;;;;5078487;28;20012;-73
2021/08/15 13:23:28;;;;;;;6.50;2.38;;;;;;;;;;5078273;28;20579;-75
2021/08/15 13:25:54;;;;;;;7.97;2.38;;;;;;;;;;5078361;28;20026;-76
2021/08/15 13:28:21;;;;;;;7.88;2.58;;;;;;;;;;5078208;28;20111;-76
2021/08/15 13:30:47;;;;;;;5.50;1.83;;;;;;;;;;5096357;28;20032;-78
2021/08/15 13:33:14;;;;;;;8.88;2.00;;;;;;;;;;5078417;28;20119;-74
2021/08/15 13:35:40;;;;;;;7.30;2.00;;;;;;;;;;5096360;28;20034;-76
2021/08/15 13:38:06;;;;;;;8.77;2.05;;;;;;;;;;5078246;28;20032;-73
2021/08/15 13:40:32;;;;;;;4.15;1.98;;;;;;;;;;5092142;28;20674;-72
2021/08/15 13:43:00;;;;;;;10.77;2.72;;;;;;;;;;5098407;28;20092;-72
2021/08/15 13:45:26;;;;;;;7.65;2.88;;;;;;;;;;5109355;28;20528;-69
2021/08/15 13:47:53;;;;;;;5.70;2.42;;;;;;;;;;5095699;28;20016;-69
2021/08/15 13:50:21;;;;;;;9.07;2.50;;;;;;;;;;5095894;28;20161;-69
2021/08/15 13:52:47;;;;;;;7.00;2.28;;;;;;;;;;5095729;28;20475;-69
2021/08/15 13:55:14;;;;;;;6.50;2.30;;;;;;;;;;5101074;28;20070;-71
2021/08/15 13:57:43;;;;;;;9.52;2.55;;;;;;;;;;5095622;28;20169;-69
2021/08/15 14:00:09;;;;;;;12.23;2.97;;;;;;;;;;5090389;28;20028;-69
2021/08/15 14:02:35;;;;;;;26.45;3.70;;;;;;;;;;5102479;28;20425;-72
2021/08/15 14:05:01;;;;;;;11.68;2.65;;;;;;;;;;5076824;28;20028;-68
2021/08/15 14:07:27;;;;;;;11.85;2.60;;;;;;;;;;5094936;28;20018;-69
2021/08/15 14:09:53;;;;;;;17.30;2.70;;;;;;;;;;5095508;28;20024;-71
2021/08/15 14:12:19;;;;;;;8.55;2.88;;;;;;;;;;5094716;28;20024;-69
2021/08/15 14:14:45;;;;;;;14.20;2.17;;;;;;;;;;5095202;28;20043;-70
2021/08/15 14:17:13;;;;;;;5.63;2.33;;;;;;;;;;5095293;28;20039;-70
2021/08/15 14:19:39;;;;;;;10.13;2.95;;;;;;;;;;5095227;28;20012;-70
2021/08/15 14:22:05;;;;;;;9.57;2.53;;;;;;;;;;5094939;28;20383;-71
2021/08/15 14:24:31;;;;;;;8.25;2.83;;;;;;;;;;5094939;28;20081;-71
2021/08/15 14:26:57;;;;;;;7.95;2.65;;;;;;;;;;5077164;28;20024;-70
2021/08/15 14:29:23;;;;;;;9.20;2.47;;;;;;;;;;5095413;28;20020;-71
2021/08/15 14:31:49;;;;;;;9.65;3.28;;;;;;;;;;5095507;28;20032;-71
2021/08/15 14:34:15;;;;;;;7.25;2.45;;;;;;;;;;5077195;28;20028;-70
2021/08/15 14:36:44;;;;;;;9.85;2.72;;;;;;;;;;5094704;28;20036;-71
2021/08/15 14:39:11;;;;;;;5.75;2.22;;;;;;;;;;5094420;28;20016;-72
2021/08/15 14:41:37;;;;;;;16.15;3.20;;;;;;;;;;5094989;28;20383;-71